sensor_id;sensor_type;location;lat;lon;timestamp;pressure;altitude;pressure_sealevel;temperature;humidity
69402;BME280;56589;51.992;5.924;2023-01-31T00:02:02;101797.84;;;2.63;76.76
69402;BME280;56589;51.992;5.924;2023-01-31T00:04:28;101790.94;;;2.62;76.66
69402;BME280;56589;51.992;5.924;2023-01-31T00:06:54;101786.63;;;2.61;76.82
69402;BME280;56589;51.992;5.924;2023-01-31T00:09:20;101804.75;;;2.61;76.51
69402;BME280;56589;51.992;5.924;2023-01-31T00:11:46;101810.00;;;2.58;76.37
69402;BME280;56589;51.992;5.924;2023-01-31T00:14:17;101823.00;;;2.55;76.37
69402;BME280;56589;51.992;5.924;2023-01-31T00:16:47;101819.59;;;2.53;76.81
69402;BME280;56589;51.992;5.924;2023-01-31T00:19:13;101816.16;;;2.51;76.55
69402;BME280;56589;51.992;5.924;2023-01-31T00:21:38;101818.75;;;2.49;76.48
69402;BME280;56589;51.992;5.924;2023-01-31T00:24:05;101823.09;;;2.50;76.94
69402;BME280;56589;51.992;5.924;2023-01-31T00:26:32;101812.72;;;2.49;76.88
69402;BME280;56589;51.992;5.924;2023-01-31T00:29:01;101814.47;;;2.47;76.91
69402;BME280;56589;51.992;5.924;2023-01-31T00:31:30;101816.25;;;2.45;76.78
69402;BME280;56589;51.992;5.924;2023-01-31T00:34:00;101817.13;;;2.44;76.75
69402;BME280;56589;51.992;5.924;2023-01-31T00:36:28;101813.66;;;2.43;76.98
69402;BME280;56589;51.992;5.924;2023-01-31T00:38:59;101813.72;;;2.40;76.76
69402;BME280;56589;51.992;5.924;2023-01-31T00:41:28;101800.78;;;2.37;76.58
69402;BME280;56589;51.992;5.924;2023-01-31T00:43:55;101797.41;;;2.34;76.69
69402;BME280;56589;51.992;5.924;2023-01-31T00:46:22;101793.97;;;2.30;76.98
69402;BME280;56589;51.992;5.924;2023-01-31T00:48:48;101794.91;;;2.26;77.06
69402;BME280;56589;51.992;5.924;2023-01-31T00:51:18;101780.28;;;2.22;76.77
69402;BME280;56589;51.992;5.924;2023-01-31T00:53:45;101787.22;;;2.20;76.83
69402;BME280;56589;51.992;5.924;2023-01-31T00:56:13;101789.84;;;2.17;77.28
69402;BME280;56589;51.992;5.924;2023-01-31T00:58:40;101792.50;;;2.14;77.29
69402;BME280;56589;51.992;5.924;2023-01-31T01:01:08;101789.91;;;2.11;77.20
69402;BME280;56589;51.992;5.924;2023-01-31T01:03:36;101780.50;;;2.05;77.38
69402;BME280;56589;51.992;5.924;2023-01-31T01:06:04;101784.00;;;2.03;77.73
69402;BME280;56589;51.992;5.924;2023-01-31T01:08:35;101777.94;;;2.01;77.51
69402;BME280;56589;51.992;5.924;2023-01-31T01:11:05;101771.97;;;1.97;77.52
69402;BME280;56589;51.992;5.924;2023-01-31T01:13:32;101771.97;;;1.97;77.28
69402;BME280;56589;51.992;5.924;2023-01-31T01:16:03;101767.66;;;1.94;77.67
69402;BME280;56589;51.992;5.924;2023-01-31T01:18:30;101767.72;;;1.91;77.63
69402;BME280;56589;51.992;5.924;2023-01-31T01:20:56;101766.00;;;1.90;77.97
69402;BME280;56589;51.992;5.924;2023-01-31T01:23:21;101772.94;;;1.90;77.63
69402;BME280;56589;51.992;5.924;2023-01-31T01:25:50;101770.38;;;1.87;77.52
69402;BME280;56589;51.992;5.924;2023-01-31T01:28:15;101766.06;;;1.86;77.67
69402;BME280;56589;51.992;5.924;2023-01-31T01:30:41;101775.59;;;1.84;77.69
69402;BME280;56589;51.992;5.924;2023-01-31T01:33:07;101769.56;;;1.83;78.13
69402;BME280;56589;51.992;5.924;2023-01-31T01:35:33;101784.25;;;1.83;77.91
69402;BME280;56589;51.992;5.924;2023-01-31T01:37:58;101786.81;;;1.81;78.12
69402;BME280;56589;51.992;5.924;2023-01-31T01:40:32;101789.44;;;1.80;78.12
69402;BME280;56589;51.992;5.924;2023-01-31T01:43:02;101792.03;;;1.80;78.21
69402;BME280;56589;51.992;5.924;2023-01-31T01:45:28;101795.50;;;1.79;78.16
69402;BME280;56589;51.992;5.924;2023-01-31T01:47:58;101794.66;;;1.78;77.94
69402;BME280;56589;51.992;5.924;2023-01-31T01:50:30;101799.78;;;1.80;78.01
69402;BME280;56589;51.992;5.924;2023-01-31T01:53:04;101792.94;;;1.77;77.86
69402;BME280;56589;51.992;5.924;2023-01-31T01:55:37;101797.25;;;1.75;78.10
69402;BME280;56589;51.992;5.924;2023-01-31T01:58:14;101787.81;;;1.73;77.88
69402;BME280;56589;51.992;5.924;2023-01-31T02:00:46;101792.16;;;1.69;78.13
69402;BME280;56589;51.992;5.924;2023-01-31T02:03:14;101792.19;;;1.66;78.23
69402;BME280;56589;51.992;5.924;2023-01-31T02:05:44;101785.31;;;1.63;78.16
69402;BME280;56589;51.992;5.924;2023-01-31T02:08:12;101782.72;;;1.62;78.12
69402;BME280;56589;51.992;5.924;2023-01-31T02:10:46;101789.66;;;1.60;78.09
69402;BME280;56589;51.992;5.924;2023-01-31T02:13:19;101786.25;;;1.58;78.42
69402;BME280;56589;51.992;5.924;2023-01-31T02:15:46;101792.28;;;1.58;78.36
69402;BME280;56589;51.992;5.924;2023-01-31T02:18:13;101790.56;;;1.56;78.70
69402;BME280;56589;51.992;5.924;2023-01-31T02:21:07;101793.16;;;1.56;78.47
69402;BME280;56589;51.992;5.924;2023-01-31T02:27:28;101789.63;;;1.64;78.64
69402;BME280;56589;51.992;5.924;2023-01-31T02:30:42;101799.03;;;1.70;78.64
69402;BME280;56589;51.992;5.924;2023-01-31T02:33:30;101787.81;;;1.73;78.83
69402;BME280;56589;51.992;5.924;2023-01-31T02:36:13;101789.50;;;1.77;78.76
69402;BME280;56589;51.992;5.924;2023-01-31T02:38:56;101785.97;;;1.81;78.93
69402;BME280;56589;51.992;5.924;2023-01-31T02:41:35;101779.03;;;1.84;78.95
69402;BME280;56589;51.992;5.924;2023-01-31T02:44:14;101767.75;;;1.90;79.21
69402;BME280;56589;51.992;5.924;2023-01-31T02:46:52;101776.28;;;1.96;78.97
69402;BME280;56589;51.992;5.924;2023-01-31T02:49:29;101771.06;;;2.01;79.21
69402;BME280;56589;51.992;5.924;2023-01-31T02:52:08;101761.47;;;2.06;79.19
69402;BME280;56589;51.992;5.924;2023-01-31T02:54:42;101753.66;;;2.11;79.00
69402;BME280;56589;51.992;5.924;2023-01-31T02:57:16;101762.22;;;2.16;78.89
69402;BME280;56589;51.992;5.924;2023-01-31T02:59:44;101750.94;;;2.18;79.02
69402;BME280;56589;51.992;5.924;2023-01-31T03:02:11;101750.94;;;2.21;78.76
69402;BME280;56589;51.992;5.924;2023-01-31T03:04:40;101738.78;;;2.23;78.73
69402;BME280;56589;51.992;5.924;2023-01-31T03:07:07;101734.47;;;2.24;79.05
69402;BME280;56589;51.992;5.924;2023-01-31T03:09:48;101731.03;;;2.23;78.97
69402;BME280;56589;51.992;5.924;2023-01-31T03:12:41;101720.66;;;2.23;78.92
69402;BME280;56589;51.992;5.924;2023-01-31T03:15:38;101728.41;;;2.25;79.07
69402;BME280;56589;51.992;5.924;2023-01-31T03:18:18;101726.69;;;2.26;78.87
69402;BME280;56589;51.992;5.924;2023-01-31T03:20:57;101722.34;;;2.28;79.46
69402;BME280;56589;51.992;5.924;2023-01-31T03:23:31;101732.66;;;2.32;79.36
69402;BME280;56589;51.992;5.924;2023-01-31T03:26:03;101730.03;;;2.34;79.26
69402;BME280;56589;51.992;5.924;2023-01-31T03:28:32;101730.84;;;2.36;78.97
69402;BME280;56589;51.992;5.924;2023-01-31T03:31:04;101723.03;;;2.39;79.16
69402;BME280;56589;51.992;5.924;2023-01-31T03:33:37;101729.91;;;2.41;79.21
69402;BME280;56589;51.992;5.924;2023-01-31T03:36:14;101728.97;;;2.45;79.27
69402;BME280;56589;51.992;5.924;2023-01-31T03:38:50;101727.22;;;2.47;79.94
69402;BME280;56589;51.992;5.924;2023-01-31T03:41:28;101731.50;;;2.48;79.60
69402;BME280;56589;51.992;5.924;2023-01-31T03:44:06;101724.59;;;2.50;79.50
69402;BME280;56589;51.992;5.924;2023-01-31T03:46:39;101719.31;;;2.55;79.32
69402;BME280;56589;51.992;5.924;2023-01-31T03:49:12;101720.97;;;2.59;79.43
69402;BME280;56589;51.992;5.924;2023-01-31T03:51:45;101720.09;;;2.60;79.70
69402;BME280;56589;51.992;5.924;2023-01-31T03:54:18;101716.59;;;2.64;79.68
69402;BME280;56589;51.992;5.924;2023-01-31T03:56:52;101713.06;;;2.68;79.61
69402;BME280;56589;51.992;5.924;2023-01-31T03:59:26;101713.91;;;2.70;79.86
69402;BME280;56589;51.992;5.924;2023-01-31T04:01:59;101719.88;;;2.74;79.81
69402;BME280;56589;51.992;5.924;2023-01-31T04:04:30;101714.66;;;2.77;80.05
69402;BME280;56589;51.992;5.924;2023-01-31T04:07:05;101703.34;;;2.81;79.73
69402;BME280;56589;51.992;5.924;2023-01-31T04:09:31;101704.16;;;2.83;79.71
69402;BME280;56589;51.992;5.924;2023-01-31T04:11:58;101699.81;;;2.85;80.00
69402;BME280;56589;51.992;5.924;2023-01-31T04:14:26;101702.38;;;2.87;79.71
69402;BME280;56589;51.992;5.924;2023-01-31T04:16:52;101707.53;;;2.88;79.95
69402;BME280;56589;51.992;5.924;2023-01-31T04:19:18;101697.13;;;2.90;79.61
69402;BME280;56589;51.992;5.924;2023-01-31T04:21:44;101700.56;;;2.90;79.66
69402;BME280;56589;51.992;5.924;2023-01-31T04:24:12;101697.09;;;2.91;79.90
69402;BME280;56589;51.992;5.924;2023-01-31T04:26:38;101685.00;;;2.90;79.81
69402;BME280;56589;51.992;5.924;2023-01-31T04:29:04;101701.44;;;2.91;79.59
69402;BME280;56589;51.992;5.924;2023-01-31T04:31:30;101690.19;;;2.90;79.81
69402;BME280;56589;51.992;5.924;2023-01-31T04:33:56;101687.56;;;2.92;79.74
69402;BME280;56589;51.992;5.924;2023-01-31T04:36:22;101685.84;;;2.92;80.01
69402;BME280;56589;51.992;5.924;2023-01-31T04:38:48;101687.56;;;2.92;80.12
69402;BME280;56589;51.992;5.924;2023-01-31T04:41:17;101697.94;;;2.92;80.35
69402;BME280;56589;51.992;5.924;2023-01-31T04:43:43;101684.97;;;2.92;80.26
69402;BME280;56589;51.992;5.924;2023-01-31T04:46:09;101691.03;;;2.92;80.64
69402;BME280;56589;51.992;5.924;2023-01-31T04:48:35;101678.06;;;2.94;80.52
69402;BME280;56589;51.992;5.924;2023-01-31T04:51:00;101668.53;;;2.94;80.05
69402;BME280;56589;51.992;5.924;2023-01-31T04:53:26;101679.72;;;2.96;80.34
69402;BME280;56589;51.992;5.924;2023-01-31T04:55:53;101670.19;;;2.97;80.75
69402;BME280;56589;51.992;5.924;2023-01-31T04:58:22;101669.28;;;3.01;80.53
69402;BME280;56589;51.992;5.924;2023-01-31T05:00:48;101658.88;;;3.01;80.35
69402;BME280;56589;51.992;5.924;2023-01-31T05:03:14;101657.16;;;3.01;80.38
69402;BME280;56589;51.992;5.924;2023-01-31T05:05:40;101650.22;;;3.02;80.47
69402;BME280;56589;51.992;5.924;2023-01-31T05:08:06;101651.06;;;3.02;80.88
69402;BME280;56589;51.992;5.924;2023-01-31T05:10:33;101642.41;;;3.03;80.61
69402;BME280;56589;51.992;5.924;2023-01-31T05:13:00;101630.28;;;3.06;80.86
69402;BME280;56589;51.992;5.924;2023-01-31T05:15:28;101631.97;;;3.07;81.04
69402;BME280;56589;51.992;5.924;2023-01-31T05:17:54;101628.47;;;3.09;80.65
69402;BME280;56589;51.992;5.924;2023-01-31T05:20:20;101615.44;;;3.11;80.81
69402;BME280;56589;51.992;5.924;2023-01-31T05:22:46;101626.66;;;3.13;80.61
69402;BME280;56589;51.992;5.924;2023-01-31T05:25:13;101634.41;;;3.14;80.81
69402;BME280;56589;51.992;5.924;2023-01-31T05:27:38;101639.53;;;3.17;80.57
69402;BME280;56589;51.992;5.924;2023-01-31T05:30:06;101626.56;;;3.17;80.69
69402;BME280;56589;51.992;5.924;2023-01-31T05:32:36;101631.75;;;3.19;80.96
69402;BME280;56589;51.992;5.924;2023-01-31T05:35:02;101642.09;;;3.20;80.93
69402;BME280;56589;51.992;5.924;2023-01-31T05:37:28;101641.19;;;3.21;80.84
69402;BME280;56589;51.992;5.924;2023-01-31T05:39:54;101639.41;;;3.23;80.79
69402;BME280;56589;51.992;5.924;2023-01-31T05:42:19;101638.56;;;3.24;81.21
69402;BME280;56589;51.992;5.924;2023-01-31T05:44:45;101634.22;;;3.23;81.31
69402;BME280;56589;51.992;5.924;2023-01-31T05:47:11;101623.84;;;3.23;81.12
69402;BME280;56589;51.992;5.924;2023-01-31T05:49:39;101610.00;;;3.24;80.96
69402;BME280;56589;51.992;5.924;2023-01-31T05:52:05;101612.59;;;3.24;81.44
69402;BME280;56589;51.992;5.924;2023-01-31T05:54:31;101599.59;;;3.26;81.19
69402;BME280;56589;51.992;5.924;2023-01-31T05:56:57;101601.28;;;3.27;81.15
69402;BME280;56589;51.992;5.924;2023-01-31T05:59:23;101600.44;;;3.26;81.39
69402;BME280;56589;51.992;5.924;2023-01-31T06:01:48;101597.84;;;3.26;81.32
69402;BME280;56589;51.992;5.924;2023-01-31T06:04:14;101605.63;;;3.26;81.42
69402;BME280;56589;51.992;5.924;2023-01-31T06:06:42;101608.19;;;3.28;81.30
69402;BME280;56589;51.992;5.924;2023-01-31T06:09:08;101603.84;;;3.30;81.64
69402;BME280;56589;51.992;5.924;2023-01-31T06:11:34;101600.31;;;3.32;81.72
69402;BME280;56589;51.992;5.924;2023-01-31T06:14:00;101588.16;;;3.35;81.66
69402;BME280;56589;51.992;5.924;2023-01-31T06:16:26;101584.66;;;3.36;81.95
69402;BME280;56589;51.992;5.924;2023-01-31T06:18:51;101576.78;;;3.40;81.83
69402;BME280;56589;51.992;5.924;2023-01-31T06:21:17;101564.66;;;3.41;81.68
69402;BME280;56589;51.992;5.924;2023-01-31T06:23:45;101576.69;;;3.45;81.68
69402;BME280;56589;51.992;5.924;2023-01-31T06:26:11;101580.09;;;3.47;81.86
69402;BME280;56589;51.992;5.924;2023-01-31T06:28:37;101585.19;;;3.51;82.12
69402;BME280;56589;51.992;5.924;2023-01-31T06:31:07;101581.66;;;3.54;81.98
69402;BME280;56589;51.992;5.924;2023-01-31T06:33:33;101573.88;;;3.54;82.11
69402;BME280;56589;51.992;5.924;2023-01-31T06:35:59;101570.44;;;3.53;81.36
69402;BME280;56589;51.992;5.924;2023-01-31T06:38:26;101571.31;;;3.52;81.94
69402;BME280;56589;51.992;5.924;2023-01-31T06:40:55;101560.97;;;3.51;81.91
69402;BME280;56589;51.992;5.924;2023-01-31T06:43:22;101566.97;;;3.53;81.75
69402;BME280;56589;51.992;5.924;2023-01-31T06:45:49;101566.06;;;3.55;81.93
69402;BME280;56589;51.992;5.924;2023-01-31T06:48:15;101559.13;;;3.56;81.86
69402;BME280;56589;51.992;5.924;2023-01-31T06:50:41;101561.69;;;3.57;82.06
69402;BME280;56589;51.992;5.924;2023-01-31T06:53:08;101560.75;;;3.60;82.07
69402;BME280;56589;51.992;5.924;2023-01-31T06:55:35;101564.19;;;3.62;81.75
69402;BME280;56589;51.992;5.924;2023-01-31T06:58:04;101570.19;;;3.64;81.98
69402;BME280;56589;51.992;5.924;2023-01-31T07:00:30;101558.06;;;3.65;81.86
69402;BME280;56589;51.992;5.924;2023-01-31T07:02:57;101575.34;;;3.67;81.99
69402;BME280;56589;51.992;5.924;2023-01-31T07:05:22;101559.72;;;3.69;81.82
69402;BME280;56589;51.992;5.924;2023-01-31T07:07:50;101557.06;;;3.70;81.68
69402;BME280;56589;51.992;5.924;2023-01-31T07:10:18;101552.69;;;3.72;81.61
69402;BME280;56589;51.992;5.924;2023-01-31T07:12:44;101550.94;;;3.74;81.95
69402;BME280;56589;51.992;5.924;2023-01-31T07:15:12;101544.84;;;3.75;81.31
69402;BME280;56589;51.992;5.924;2023-01-31T07:17:38;101545.72;;;3.74;81.88
69402;BME280;56589;51.992;5.924;2023-01-31T07:20:05;101533.59;;;3.75;81.91
69402;BME280;56589;51.992;5.924;2023-01-31T07:22:32;101533.66;;;3.72;81.69
69402;BME280;56589;51.992;5.924;2023-01-31T07:25:01;101532.78;;;3.71;81.46
69402;BME280;56589;51.992;5.924;2023-01-31T07:27:27;101548.38;;;3.71;81.44
69402;BME280;56589;51.992;5.924;2023-01-31T07:29:52;101548.38;;;3.71;81.49
69402;BME280;56589;51.992;5.924;2023-01-31T07:32:21;101539.75;;;3.71;81.34
69402;BME280;56589;51.992;5.924;2023-01-31T07:34:47;101544.03;;;3.72;81.69
69402;BME280;56589;51.992;5.924;2023-01-31T07:37:12;101531.03;;;3.73;81.65
69402;BME280;56589;51.992;5.924;2023-01-31T07:39:38;101518.91;;;3.74;81.41
69402;BME280;56589;51.992;5.924;2023-01-31T07:42:04;101523.25;;;3.73;81.65
69402;BME280;56589;51.992;5.924;2023-01-31T07:44:30;101517.16;;;3.74;81.68
69402;BME280;56589;51.992;5.924;2023-01-31T07:46:56;101522.31;;;3.76;81.47
69402;BME280;56589;51.992;5.924;2023-01-31T07:49:24;101522.25;;;3.77;81.49
69402;BME280;56589;51.992;5.924;2023-01-31T07:51:50;101517.06;;;3.79;81.32
69402;BME280;56589;51.992;5.924;2023-01-31T07:54:16;101516.97;;;3.82;81.68
69402;BME280;56589;51.992;5.924;2023-01-31T07:56:41;101513.41;;;3.86;81.57
69402;BME280;56589;51.992;5.924;2023-01-31T07:59:07;101522.06;;;3.87;81.15
69402;BME280;56589;51.992;5.924;2023-01-31T08:01:33;101519.47;;;3.87;81.19
69402;BME280;56589;51.992;5.924;2023-01-31T08:03:59;101515.06;;;3.89;80.91
69402;BME280;56589;51.992;5.924;2023-01-31T08:06:28;101515.03;;;3.90;81.16
69402;BME280;56589;51.992;5.924;2023-01-31T08:08:56;101515.00;;;3.92;81.21
69402;BME280;56589;51.992;5.924;2023-01-31T08:11:23;101500.19;;;3.95;81.26
69402;BME280;56589;51.992;5.924;2023-01-31T08:13:49;101510.53;;;3.97;80.99
69402;BME280;56589;51.992;5.924;2023-01-31T08:16:15;101512.25;;;3.98;81.12
69402;BME280;56589;51.992;5.924;2023-01-31T08:18:41;101520.84;;;4.00;80.96
69402;BME280;56589;51.992;5.924;2023-01-31T08:21:07;101520.81;;;4.01;80.90
69402;BME280;56589;51.992;5.924;2023-01-31T08:23:39;101522.56;;;4.01;80.56
69402;BME280;56589;51.992;5.924;2023-01-31T08:26:07;101522.59;;;3.99;80.90
69402;BME280;56589;51.992;5.924;2023-01-31T08:28:35;101506.16;;;3.99;80.75
69402;BME280;56589;51.992;5.924;2023-01-31T08:31:03;101502.66;;;4.00;80.61
69402;BME280;56589;51.992;5.924;2023-01-31T08:33:29;101496.56;;;4.01;80.61
69402;BME280;56589;51.992;5.924;2023-01-31T08:35:55;101497.44;;;4.01;80.39
69402;BME280;56589;51.992;5.924;2023-01-31T08:38:22;101483.53;;;4.02;80.77
69402;BME280;56589;51.992;5.924;2023-01-31T08:40:52;101486.03;;;4.07;80.46
69402;BME280;56589;51.992;5.924;2023-01-31T08:43:24;101487.72;;;4.08;80.71
69402;BME280;56589;51.992;5.924;2023-01-31T08:45:50;101480.72;;;4.11;80.46
69402;BME280;56589;51.992;5.924;2023-01-31T08:48:16;101481.47;;;4.15;80.70
69402;BME280;56589;51.992;5.924;2023-01-31T08:50:42;101470.22;;;4.16;80.19
69402;BME280;56589;51.992;5.924;2023-01-31T08:53:09;101473.63;;;4.18;80.26
69402;BME280;56589;51.992;5.924;2023-01-31T08:55:35;101466.59;;;4.22;80.41
69402;BME280;56589;51.992;5.924;2023-01-31T08:58:04;101473.41;;;4.26;80.14
69402;BME280;56589;51.992;5.924;2023-01-31T09:00:30;101469.91;;;4.27;80.47
69402;BME280;56589;51.992;5.924;2023-01-31T09:02:59;101472.38;;;4.31;80.08
69402;BME280;56589;51.992;5.924;2023-01-31T09:05:27;101468.00;;;4.33;80.69
69402;BME280;56589;51.992;5.924;2023-01-31T09:07:54;101467.88;;;4.38;80.36
69402;BME280;56589;51.992;5.924;2023-01-31T09:10:21;101455.66;;;4.40;79.74
69402;BME280;56589;51.992;5.924;2023-01-31T09:12:48;101463.41;;;4.43;79.87
69402;BME280;56589;51.992;5.924;2023-01-31T09:15:17;101469.38;;;4.47;79.80
69402;BME280;56589;51.992;5.924;2023-01-31T09:17:44;101467.59;;;4.49;79.75
69402;BME280;56589;51.992;5.924;2023-01-31T09:20:10;101463.22;;;4.49;79.82
69402;BME280;56589;51.992;5.924;2023-01-31T09:22:37;101460.63;;;4.49;79.59
69402;BME280;56589;51.992;5.924;2023-01-31T09:25:04;101447.63;;;4.49;79.81
69402;BME280;56589;51.992;5.924;2023-01-31T09:27:31;101445.03;;;4.49;79.55
69402;BME280;56589;51.992;5.924;2023-01-31T09:29:58;101454.59;;;4.49;79.77
69402;BME280;56589;51.992;5.924;2023-01-31T09:32:26;101464.09;;;4.50;79.57
69402;BME280;56589;51.992;5.924;2023-01-31T09:34:54;101451.84;;;4.53;79.71
69402;BME280;56589;51.992;5.924;2023-01-31T09:37:21;101447.53;;;4.52;79.64
69402;BME280;56589;51.992;5.924;2023-01-31T09:39:48;101451.84;;;4.53;79.55
69402;BME280;56589;51.992;5.924;2023-01-31T09:42:20;101452.66;;;4.55;79.70
69402;BME280;56589;51.992;5.924;2023-01-31T09:44:57;101459.44;;;4.61;79.54
69402;BME280;56589;51.992;5.924;2023-01-31T09:47:32;101451.53;;;4.64;79.80
69402;BME280;56589;51.992;5.924;2023-01-31T09:50:03;101454.13;;;4.65;79.60
69402;BME280;56589;51.992;5.924;2023-01-31T09:52:37;101452.44;;;4.63;79.65
69402;BME280;56589;51.992;5.924;2023-01-31T09:55:04;101448.94;;;4.64;79.61
69402;BME280;56589;51.992;5.924;2023-01-31T09:57:39;101437.66;;;4.65;79.97
69402;BME280;56589;51.992;5.924;2023-01-31T10:00:19;101450.56;;;4.68;79.97
69402;BME280;56589;51.992;5.924;2023-01-31T10:03:15;101452.19;;;4.72;79.90
69402;BME280;56589;51.992;5.924;2023-01-31T10:05:56;101443.44;;;4.75;79.88
69402;BME280;56589;51.992;5.924;2023-01-31T10:08:39;101442.53;;;4.76;79.71
69402;BME280;56589;51.992;5.924;2023-01-31T10:11:16;101446.88;;;4.75;79.88
69402;BME280;56589;51.992;5.924;2023-01-31T10:13:56;101444.22;;;4.77;79.76
69402;BME280;56589;51.992;5.924;2023-01-31T10:16:29;101433.78;;;4.78;79.53
69402;BME280;56589;51.992;5.924;2023-01-31T10:19:04;101444.03;;;4.83;79.81
69402;BME280;56589;51.992;5.924;2023-01-31T10:21:40;101436.09;;;4.87;79.78
69402;BME280;56589;51.992;5.924;2023-01-31T10:24:14;101431.66;;;4.92;80.16
69402;BME280;56589;51.992;5.924;2023-01-31T10:26:45;101434.97;;;4.98;79.88
69402;BME280;56589;51.992;5.924;2023-01-31T10:29:20;101435.72;;;5.01;79.64
69402;BME280;56589;51.992;5.924;2023-01-31T10:31:55;101432.06;;;5.07;80.25
69402;BME280;56589;51.992;5.924;2023-01-31T10:34:29;101420.59;;;5.14;79.89
69402;BME280;56589;51.992;5.924;2023-01-31T10:37:02;101427.38;;;5.18;79.75
69402;BME280;56589;51.992;5.924;2023-01-31T10:39:38;101416.91;;;5.21;79.48
69402;BME280;56589;51.992;5.924;2023-01-31T10:42:19;101421.91;;;5.27;79.62
69402;BME280;56589;51.992;5.924;2023-01-31T10:44:57;101425.25;;;5.31;79.44
69402;BME280;56589;51.992;5.924;2023-01-31T10:47:28;101424.31;;;5.33;79.42
69402;BME280;56589;51.992;5.924;2023-01-31T10:50:09;101414.69;;;5.35;79.53
69402;BME280;56589;51.992;5.924;2023-01-31T10:52:48;101409.34;;;5.40;79.61
69402;BME280;56589;51.992;5.924;2023-01-31T10:55:54;101403.94;;;5.46;79.63
69402;BME280;56589;51.992;5.924;2023-01-31T10:58:28;101402.13;;;5.48;79.44
69402;BME280;56589;51.992;5.924;2023-01-31T11:00:56;101408.94;;;5.52;79.54
69402;BME280;56589;51.992;5.924;2023-01-31T11:03:23;101403.56;;;5.57;79.55
69402;BME280;56589;51.992;5.924;2023-01-31T11:05:54;101412.06;;;5.62;79.74
69402;BME280;56589;51.992;5.924;2023-01-31T11:08:30;101403.28;;;5.66;79.33
69402;BME280;56589;51.992;5.924;2023-01-31T11:11:05;101418.75;;;5.70;79.64
69402;BME280;56589;51.992;5.924;2023-01-31T11:13:33;101391.66;;;5.74;79.46
69402;BME280;56589;51.992;5.924;2023-01-31T11:16:01;101389.75;;;5.80;79.31
69402;BME280;56589;51.992;5.924;2023-01-31T11:18:33;101392.31;;;5.81;79.46
69402;BME280;56589;51.992;5.924;2023-01-31T11:21:05;101393.06;;;5.85;79.19
69402;BME280;56589;51.992;5.924;2023-01-31T11:23:33;101395.69;;;5.85;79.54
69402;BME280;56589;51.992;5.924;2023-01-31T11:26:01;101392.97;;;5.88;79.64
69402;BME280;56589;51.992;5.924;2023-01-31T11:28:34;101398.13;;;5.89;79.58
69402;BME280;56589;51.992;5.924;2023-01-31T11:31:06;101397.28;;;5.89;78.99
69402;BME280;56589;51.992;5.924;2023-01-31T11:33:47;101395.63;;;5.86;79.02
69402;BME280;56589;51.992;5.924;2023-01-31T11:36:24;101402.59;;;5.86;79.26
69402;BME280;56589;51.992;5.924;2023-01-31T11:38:56;101382.59;;;5.86;79.33
69402;BME280;56589;51.992;5.924;2023-01-31T11:41:31;101377.22;;;5.91;79.35
69402;BME280;56589;51.992;5.924;2023-01-31T11:44:14;101377.16;;;5.92;79.84
69402;BME280;56589;51.992;5.924;2023-01-31T11:46:46;101378.00;;;5.93;79.75
69402;BME280;56589;51.992;5.924;2023-01-31T11:49:30;101355.31;;;5.96;79.88
69402;BME280;56589;51.992;5.924;2023-01-31T11:52:11;101359.59;;;5.97;80.00
69402;BME280;56589;51.992;5.924;2023-01-31T11:54:44;101354.31;;;5.99;79.79
69402;BME280;56589;51.992;5.924;2023-01-31T11:57:16;101362.84;;;6.04;79.99
69402;BME280;56589;51.992;5.924;2023-01-31T11:59:49;101354.97;;;6.06;80.40
69402;BME280;56589;51.992;5.924;2023-01-31T12:02:25;101347.13;;;6.06;80.08
69402;BME280;56589;51.992;5.924;2023-01-31T12:04:57;101353.22;;;6.06;80.33
69402;BME280;56589;51.992;5.924;2023-01-31T12:07:31;101348.88;;;6.07;80.59
69402;BME280;56589;51.992;5.924;2023-01-31T12:10:24;101344.53;;;6.06;80.58
69402;BME280;56589;51.992;5.924;2023-01-31T12:12:54;101348.88;;;6.07;80.91
69402;BME280;56589;51.992;5.924;2023-01-31T12:15:24;101348.88;;;6.07;81.40
69402;BME280;56589;51.992;5.924;2023-01-31T12:17:54;101350.50;;;6.09;81.26
69402;BME280;56589;51.992;5.924;2023-01-31T12:20:31;101354.00;;;6.08;81.51
69402;BME280;56589;51.992;5.924;2023-01-31T12:23:14;101361.00;;;6.08;81.80
69402;BME280;56589;51.992;5.924;2023-01-31T12:26:00;101348.72;;;6.10;81.90
69402;BME280;56589;51.992;5.924;2023-01-31T12:28:49;101353.09;;;6.09;82.11
69402;BME280;56589;51.992;5.924;2023-01-31T12:31:49;101348.88;;;6.07;82.28
69402;BME280;56589;51.992;5.924;2023-01-31T12:34:58;101352.34;;;6.06;82.85
69402;BME280;56589;51.992;5.924;2023-01-31T12:37:45;101356.72;;;6.05;82.61
69402;BME280;56589;51.992;5.924;2023-01-31T12:40:36;101351.47;;;6.07;83.67
69402;BME280;56589;51.992;5.924;2023-01-31T12:43:14;101344.53;;;6.06;82.83
69402;BME280;56589;51.992;5.924;2023-01-31T12:46:02;101333.22;;;6.07;83.03
69402;BME280;56589;51.992;5.924;2023-01-31T12:48:45;101321.75;;;6.11;82.53
69402;BME280;56589;51.992;5.924;2023-01-31T12:51:38;101335.59;;;6.13;82.85
69402;BME280;56589;51.992;5.924;2023-01-31T12:54:22;101329.63;;;6.09;83.65
69402;BME280;56589;51.992;5.924;2023-01-31T12:57:19;101334.00;;;6.09;83.52
69402;BME280;56589;51.992;5.924;2023-01-31T13:00:11;101338.38;;;6.08;83.33
69402;BME280;56589;51.992;5.924;2023-01-31T13:03:00;101329.56;;;6.11;83.39
69402;BME280;56589;51.992;5.924;2023-01-31T13:05:42;101325.19;;;6.13;83.12
69402;BME280;56589;51.992;5.924;2023-01-31T13:08:16;101319.00;;;6.15;83.12
69402;BME280;56589;51.992;5.924;2023-01-31T13:10:49;101317.13;;;6.19;83.56
69402;BME280;56589;51.992;5.924;2023-01-31T13:13:27;101310.94;;;6.21;83.55
69402;BME280;56589;51.992;5.924;2023-01-31T13:16:00;101306.50;;;6.23;83.05
69402;BME280;56589;51.992;5.924;2023-01-31T13:18:32;101309.94;;;6.25;83.56
69402;BME280;56589;51.992;5.924;2023-01-31T13:21:02;101308.94;;;6.28;83.58
69402;BME280;56589;51.992;5.924;2023-01-31T13:23:35;101312.34;;;6.30;83.67
69402;BME280;56589;51.992;5.924;2023-01-31T13:26:09;101307.03;;;6.33;83.26